sensor_id;sensor_type;location;lat;lon;timestamp;pressure;altitude;pressure_sealevel;temperature
19061;BMP280;9663;48.996;8.334;2023-02-28T00:00:36;101168.19;;;4.76
19061;BMP280;9663;48.996;8.334;2023-02-28T00:03:03;101163.09;;;4.75
19061;BMP280;9663;48.996;8.334;2023-02-28T00:05:29;101161.41;;;4.74
19061;BMP280;9663;48.996;8.334;2023-02-28T00:07:56;101163.03;;;4.72
19061;BMP280;9663;48.996;8.334;2023-02-28T00:10:26;101159.66;;;4.71
19061;BMP280;9663;48.996;8.334;2023-02-28T00:12:54;101159.66;;;4.71
19061;BMP280;9663;48.996;8.334;2023-02-28T00:15:23;101164.63;;;4.70
19061;BMP280;9663;48.996;8.334;2023-02-28T00:17:50;101152.81;;;4.67
19061;BMP280;9663;48.996;8.334;2023-02-28T00:20:17;101157.91;;;4.69
19061;BMP280;9663;48.996;8.334;2023-02-28T00:22:46;101165.38;;;4.67
19061;BMP280;9663;48.996;8.334;2023-02-28T00:25:15;101162.81;;;4.66
19061;BMP280;9663;48.996;8.334;2023-02-28T00:27:42;101159.47;;;4.66
19061;BMP280;9663;48.996;8.334;2023-02-28T00:30:13;101159.41;;;4.64
19061;BMP280;9663;48.996;8.334;2023-02-28T00:32:40;101157.69;;;4.63
19061;BMP280;9663;48.996;8.334;2023-02-28T00:35:07;101161.81;;;4.61
19061;BMP280;9663;48.996;8.334;2023-02-28T00:37:33;101166.84;;;4.61
19061;BMP280;9663;48.996;8.334;2023-02-28T00:39:59;101164.28;;;4.60
19061;BMP280;9663;48.996;8.334;2023-02-28T00:42:25;101160.06;;;4.59
19061;BMP280;9663;48.996;8.334;2023-02-28T00:44:51;101168.41;;;4.58
19061;BMP280;9663;48.996;8.334;2023-02-28T00:47:16;101165.78;;;4.55
19061;BMP280;9663;48.996;8.334;2023-02-28T00:49:42;101168.34;;;4.56
19061;BMP280;9663;48.996;8.334;2023-02-28T00:52:08;101169.13;;;4.55
19061;BMP280;9663;48.996;8.334;2023-02-28T00:54:34;101171.63;;;4.54
19061;BMP280;9663;48.996;8.334;2023-02-28T00:56:59;101169.91;;;4.53
19061;BMP280;9663;48.996;8.334;2023-02-28T00:59:25;101171.56;;;4.52
19061;BMP280;9663;48.996;8.334;2023-02-28T01:01:51;101166.50;;;4.51
19061;BMP280;9663;48.996;8.334;2023-02-28T01:04:17;101170.59;;;4.49
19061;BMP280;9663;48.996;8.334;2023-02-28T01:06:42;101167.22;;;4.48
19061;BMP280;9663;48.996;8.334;2023-02-28T01:09:09;101174.72;;;4.47
19061;BMP280;9663;48.996;8.334;2023-02-28T01:11:35;101172.16;;;4.45
19061;BMP280;9663;48.996;8.334;2023-02-28T01:14:02;101169.56;;;4.44
19061;BMP280;9663;48.996;8.334;2023-02-28T01:16:29;101169.56;;;4.42
19061;BMP280;9663;48.996;8.334;2023-02-28T01:18:55;101172.84;;;4.41
19061;BMP280;9663;48.996;8.334;2023-02-28T01:21:21;101170.28;;;4.40
19061;BMP280;9663;48.996;8.334;2023-02-28T01:23:48;101166.88;;;4.38
19061;BMP280;9663;48.996;8.334;2023-02-28T01:26:18;101168.50;;;4.36
19061;BMP280;9663;48.996;8.334;2023-02-28T01:28:45;101163.41;;;4.34
19061;BMP280;9663;48.996;8.334;2023-02-28T01:31:11;101168.38;;;4.33
19061;BMP280;9663;48.996;8.334;2023-02-28T01:33:38;101170.03;;;4.32
19061;BMP280;9663;48.996;8.334;2023-02-28T01:36:09;101167.47;;;4.31
19061;BMP280;9663;48.996;8.334;2023-02-28T01:38:36;101169.94;;;4.29
19061;BMP280;9663;48.996;8.334;2023-02-28T01:41:02;101168.22;;;4.28
19061;BMP280;9663;48.996;8.334;2023-02-28T01:46:10;101165.53;;;4.24
19061;BMP280;9663;48.996;8.334;2023-02-28T01:48:42;101163.84;;;4.23
19061;BMP280;9663;48.996;8.334;2023-02-28T01:51:15;101163.72;;;4.20
19061;BMP280;9663;48.996;8.334;2023-02-28T01:53:49;101158.69;;;4.20
19061;BMP280;9663;48.996;8.334;2023-02-28T01:56:29;101160.25;;;4.17
19061;BMP280;9663;48.996;8.334;2023-02-28T01:58:56;101161.09;;;4.17
19061;BMP280;9663;48.996;8.334;2023-02-28T02:01:24;101152.72;;;4.17
19061;BMP280;9663;48.996;8.334;2023-02-28T02:03:55;101154.34;;;4.15
19061;BMP280;9663;48.996;8.334;2023-02-28T02:06:25;101155.13;;;4.14
19061;BMP280;9663;48.996;8.334;2023-02-28T02:08:52;101150.88;;;4.13
19061;BMP280;9663;48.996;8.334;2023-02-28T02:11:20;101149.19;;;4.12
19061;BMP280;9663;48.996;8.334;2023-02-28T02:14:10;101155.88;;;4.11
19061;BMP280;9663;48.996;8.334;2023-02-28T02:19:52;101147.34;;;4.06
19061;BMP280;9663;48.996;8.334;2023-02-28T02:25:45;101150.47;;;4.01
19061;BMP280;9663;48.996;8.334;2023-02-28T02:42:31;101147.81;;;3.96
19061;BMP280;9663;48.996;8.334;2023-02-28T02:45:53;101149.50;;;3.97
19061;BMP280;9663;48.996;8.334;2023-02-28T02:48:08;101144.47;;;3.97
19061;BMP280;9663;48.996;8.334;2023-02-28T02:50:43;101145.34;;;3.98
19061;BMP280;9663;48.996;8.334;2023-02-28T02:53:12;101147.06;;;3.99
19061;BMP280;9663;48.996;8.334;2023-02-28T02:55:46;101151.22;;;3.98
19061;BMP280;9663;48.996;8.334;2023-02-28T02:58:16;101145.34;;;3.98
19061;BMP280;9663;48.996;8.334;2023-02-28T03:00:51;101149.50;;;3.97
19061;BMP280;9663;48.996;8.334;2023-02-28T03:03:19;101153.69;;;3.97
19061;BMP280;9663;48.996;8.334;2023-02-28T03:06:02;101149.50;;;3.97
19061;BMP280;9663;48.996;8.334;2023-02-28T03:08:34;101149.50;;;3.97
19061;BMP280;9663;48.996;8.334;2023-02-28T03:11:05;101149.50;;;3.97
19061;BMP280;9663;48.996;8.334;2023-02-28T03:19:50;101147.09;;;4.00
19061;BMP280;9663;48.996;8.334;2023-02-28T03:22:41;101155.78;;;4.08
19061;BMP280;9663;48.996;8.334;2023-02-28T03:31:08;101143.75;;;4.23
19061;BMP280;9663;48.996;8.334;2023-02-28T03:33:43;101145.56;;;4.27
19061;BMP280;9663;48.996;8.334;2023-02-28T03:36:17;101147.38;;;4.31
19061;BMP280;9663;48.996;8.334;2023-02-28T03:38:55;101130.75;;;4.34
19061;BMP280;9663;48.996;8.334;2023-02-28T03:41:33;101140.94;;;4.39
19061;BMP280;9663;48.996;8.334;2023-02-28T03:44:09;101133.56;;;4.43
19061;BMP280;9663;48.996;8.334;2023-02-28T03:46:48;101126.19;;;4.48
19061;BMP280;9663;48.996;8.334;2023-02-28T03:49:30;101137.25;;;4.53
19061;BMP280;9663;48.996;8.334;2023-02-28T03:52:01;101129.75;;;4.54
19061;BMP280;9663;48.996;8.334;2023-02-28T03:54:36;101129.88;;;4.57
19061;BMP280;9663;48.996;8.334;2023-02-28T04:00:27;101136.75;;;4.63
19061;BMP280;9663;48.996;8.334;2023-02-28T04:02:54;101129.31;;;4.66
19061;BMP280;9663;48.996;8.334;2023-02-28T04:05:21;101137.78;;;4.69
19061;BMP280;9663;48.996;8.334;2023-02-28T04:07:47;101132.00;;;4.71
19061;BMP280;9663;48.996;8.334;2023-02-28T04:10:15;101135.38;;;4.72
19061;BMP280;9663;48.996;8.334;2023-02-28T04:12:41;101135.50;;;4.76
19061;BMP280;9663;48.996;8.334;2023-02-28T04:15:08;101138.94;;;4.78
19061;BMP280;9663;48.996;8.334;2023-02-28T04:17:33;101129.78;;;4.80
19061;BMP280;9663;48.996;8.334;2023-02-28T04:19:59;101139.13;;;4.84
19061;BMP280;9663;48.996;8.334;2023-02-28T04:22:25;101137.50;;;4.86
19061;BMP280;9663;48.996;8.334;2023-02-28T04:24:53;101135.88;;;4.87
19061;BMP280;9663;48.996;8.334;2023-02-28T04:27:21;101137.66;;;4.91
19061;BMP280;9663;48.996;8.334;2023-02-28T04:29:46;101137.63;;;4.89
19061;BMP280;9663;48.996;8.334;2023-02-28T04:32:13;101130.19;;;4.92
19061;BMP280;9663;48.996;8.334;2023-02-28T04:34:39;101131.91;;;4.93
19061;BMP280;9663;48.996;8.334;2023-02-28T04:37:05;101130.22;;;4.94
19061;BMP280;9663;48.996;8.334;2023-02-28T04:39:36;101131.94;;;4.95
19061;BMP280;9663;48.996;8.334;2023-02-28T04:42:02;101130.19;;;4.92
19061;BMP280;9663;48.996;8.334;2023-02-28T04:44:28;101130.22;;;4.94
19061;BMP280;9663;48.996;8.334;2023-02-28T04:46:54;101121.84;;;4.93
19061;BMP280;9663;48.996;8.334;2023-02-28T04:49:19;101133.59;;;4.94
19061;BMP280;9663;48.996;8.334;2023-02-28T04:51:45;101126.91;;;4.95
19061;BMP280;9663;48.996;8.334;2023-02-28T04:54:10;101123.47;;;4.93
19061;BMP280;9663;48.996;8.334;2023-02-28T04:56:36;101123.41;;;4.90
19061;BMP280;9663;48.996;8.334;2023-02-28T04:59:02;101139.28;;;4.89
19061;BMP280;9663;48.996;8.334;2023-02-28T05:01:33;101136.66;;;4.86
19061;BMP280;9663;48.996;8.334;2023-02-28T05:04:02;101137.34;;;4.80
19061;BMP280;9663;48.996;8.334;2023-02-28T05:06:30;101142.25;;;4.77
19061;BMP280;9663;48.996;8.334;2023-02-28T05:08:56;101143.88;;;4.75
19061;BMP280;9663;48.996;8.334;2023-02-28T05:11:32;101139.53;;;4.71
19061;BMP280;9663;48.996;8.334;2023-02-28T05:14:26;101150.34;;;4.69
19061;BMP280;9663;48.996;8.334;2023-02-28T05:16:51;101143.50;;;4.65
19061;BMP280;9663;48.996;8.334;2023-02-28T05:19:17;101150.16;;;4.63
19061;BMP280;9663;48.996;8.334;2023-02-28T05:21:53;101147.59;;;4.62
19061;BMP280;9663;48.996;8.334;2023-02-28T05:24:19;101155.03;;;4.59
19061;BMP280;9663;48.996;8.334;2023-02-28T05:26:50;101149.13;;;4.58
19061;BMP280;9663;48.996;8.334;2023-02-28T05:29:16;101157.50;;;4.57
19061;BMP280;9663;48.996;8.334;2023-02-28T05:31:42;101152.38;;;4.54
19061;BMP280;9663;48.996;8.334;2023-02-28T05:34:08;101160.69;;;4.53
19061;BMP280;9663;48.996;8.334;2023-02-28T05:36:38;101154.72;;;4.50
19061;BMP280;9663;48.996;8.334;2023-02-28T05:39:06;101156.38;;;4.49
19061;BMP280;9663;48.996;8.334;2023-02-28T05:41:32;101159.69;;;4.48
19061;BMP280;9663;48.996;8.334;2023-02-28T05:43:58;101166.38;;;4.48
19061;BMP280;9663;48.996;8.334;2023-02-28T05:46:25;101163.06;;;4.49
19061;BMP280;9663;48.996;8.334;2023-02-28T05:48:51;101158.13;;;4.52
19061;BMP280;9663;48.996;8.334;2023-02-28T05:51:17;101159.00;;;4.52
19061;BMP280;9663;48.996;8.334;2023-02-28T05:53:43;101150.66;;;4.53
19061;BMP280;9663;48.996;8.334;2023-02-28T05:56:09;101153.16;;;4.53
19061;BMP280;9663;48.996;8.334;2023-02-28T05:58:35;101151.47;;;4.52
19061;BMP280;9663;48.996;8.334;2023-02-28T06:01:24;101156.44;;;4.51
19061;BMP280;9663;48.996;8.334;2023-02-28T06:03:50;101154.72;;;4.50
19061;BMP280;9663;48.996;8.334;2023-02-28T06:06:16;101154.72;;;4.50
19061;BMP280;9663;48.996;8.334;2023-02-28T06:08:41;101148.09;;;4.52
19061;BMP280;9663;48.996;8.334;2023-02-28T06:11:08;101152.41;;;4.56
19061;BMP280;9663;48.996;8.334;2023-02-28T06:13:34;101150.81;;;4.58
19061;BMP280;9663;48.996;8.334;2023-02-28T06:16:03;101153.44;;;4.61
19061;BMP280;9663;48.996;8.334;2023-02-28T06:18:28;101157.69;;;4.63
19061;BMP280;9663;48.996;8.334;2023-02-28T06:20:54;101154.50;;;4.67
19061;BMP280;9663;48.996;8.334;2023-02-28T06:23:21;101162.88;;;4.67
19061;BMP280;9663;48.996;8.334;2023-02-28T06:25:47;101163.03;;;4.72
19061;BMP280;9663;48.996;8.334;2023-02-28T06:28:13;101162.25;;;4.74
19061;BMP280;9663;48.996;8.334;2023-02-28T06:30:39;101169.16;;;4.80
19061;BMP280;9663;48.996;8.334;2023-02-28T06:33:05;101162.56;;;4.83
19061;BMP280;9663;48.996;8.334;2023-02-28T06:35:31;101170.28;;;4.89
19061;BMP280;9663;48.996;8.334;2023-02-28T06:37:57;101167.16;;;4.96
19061;BMP280;9663;48.996;8.334;2023-02-28T06:40:22;101160.63;;;5.01
19061;BMP280;9663;48.996;8.334;2023-02-28T06:42:48;101170.00;;;5.05
19061;BMP280;9663;48.996;8.334;2023-02-28T06:45:14;101172.66;;;5.09
19061;BMP280;9663;48.996;8.334;2023-02-28T06:47:41;101180.28;;;5.12
19061;BMP280;9663;48.996;8.334;2023-02-28T06:50:10;101169.53;;;5.16
19061;BMP280;9663;48.996;8.334;2023-02-28T06:52:36;101178.06;;;5.21
19061;BMP280;9663;48.996;8.334;2023-02-28T06:55:04;101186.66;;;5.28
19061;BMP280;9663;48.996;8.334;2023-02-28T06:57:32;101182.63;;;5.33
19061;BMP280;9663;48.996;8.334;2023-02-28T07:00:07;101188.66;;;5.38
19061;BMP280;9663;48.996;8.334;2023-02-28T07:02:37;101182.84;;;5.40
19061;BMP280;9663;48.996;8.334;2023-02-28T07:05:05;101181.25;;;5.44
19061;BMP280;9663;48.996;8.334;2023-02-28T07:07:31;101191.44;;;5.47
19061;BMP280;9663;48.996;8.334;2023-02-28T07:09:57;101194.94;;;5.51
19061;BMP280;9663;48.996;8.334;2023-02-28T07:12:23;101195.03;;;5.54
19061;BMP280;9663;48.996;8.334;2023-02-28T07:14:49;101196.81;;;5.58
19061;BMP280;9663;48.996;8.334;2023-02-28T07:17:15;101203.69;;;5.62
19061;BMP280;9663;48.996;8.334;2023-02-28T07:19:41;101202.94;;;5.66
19061;BMP280;9663;48.996;8.334;2023-02-28T07:22:07;101197.22;;;5.70
19061;BMP280;9663;48.996;8.334;2023-02-28T07:24:33;101197.34;;;5.73
19061;BMP280;9663;48.996;8.334;2023-02-28T07:26:59;101202.50;;;5.78
19061;BMP280;9663;48.996;8.334;2023-02-28T07:29:25;101203.53;;;5.84
19061;BMP280;9663;48.996;8.334;2023-02-28T07:31:51;101204.50;;;5.89
19061;BMP280;9663;48.996;8.334;2023-02-28T07:34:19;101202.13;;;5.94
19061;BMP280;9663;48.996;8.334;2023-02-28T07:36:45;101198.88;;;5.97
19061;BMP280;9663;48.996;8.334;2023-02-28T07:39:10;101212.41;;;6.01
19061;BMP280;9663;48.996;8.334;2023-02-28T07:41:36;101206.63;;;6.03
19061;BMP280;9663;48.996;8.334;2023-02-28T07:44:11;101203.41;;;6.09
19061;BMP280;9663;48.996;8.334;2023-02-28T07:46:37;101203.53;;;6.13
19061;BMP280;9663;48.996;8.334;2023-02-28T07:49:03;101197.91;;;6.22
19061;BMP280;9663;48.996;8.334;2023-02-28T07:51:30;101214.88;;;6.29
19061;BMP280;9663;48.996;8.334;2023-02-28T07:53:56;101205.84;;;6.35
19061;BMP280;9663;48.996;8.334;2023-02-28T07:56:22;101211.06;;;6.41
19061;BMP280;9663;48.996;8.334;2023-02-28T07:58:48;101213.75;;;6.47
19061;BMP280;9663;48.996;8.334;2023-02-28T08:01:14;101211.31;;;6.51
19061;BMP280;9663;48.996;8.334;2023-02-28T08:03:40;101209.78;;;6.56
19061;BMP280;9663;48.996;8.334;2023-02-28T08:06:16;101206.47;;;6.57
19061;BMP280;9663;48.996;8.334;2023-02-28T08:08:41;101204.81;;;6.59
19061;BMP280;9663;48.996;8.334;2023-02-28T08:11:07;101209.94;;;6.62
19061;BMP280;9663;48.996;8.334;2023-02-28T08:13:33;101209.25;;;6.68
19061;BMP280;9663;48.996;8.334;2023-02-28T08:16:02;101207.66;;;6.71
19061;BMP280;9663;48.996;8.334;2023-02-28T08:18:28;101207.66;;;6.71
19061;BMP280;9663;48.996;8.334;2023-02-28T08:20:53;101214.53;;;6.77
19061;BMP280;9663;48.996;8.334;2023-02-28T08:23:19;101214.63;;;6.81
19061;BMP280;9663;48.996;8.334;2023-02-28T08:25:45;101209.75;;;6.87
19061;BMP280;9663;48.996;8.334;2023-02-28T08:28:17;101218.28;;;6.92
19061;BMP280;9663;48.996;8.334;2023-02-28T08:30:43;101204.94;;;6.96
19061;BMP280;9663;48.996;8.334;2023-02-28T08:33:09;101215.22;;;7.03
19061;BMP280;9663;48.996;8.334;2023-02-28T08:35:36;101219.59;;;7.10
19061;BMP280;9663;48.996;8.334;2023-02-28T08:38:02;101212.91;;;7.12
19061;BMP280;9663;48.996;8.334;2023-02-28T08:40:28;101218.00;;;7.14
19061;BMP280;9663;48.996;8.334;2023-02-28T08:42:54;101225.66;;;7.17
19061;BMP280;9663;48.996;8.334;2023-02-28T08:45:19;101221.53;;;7.20
19061;BMP280;9663;48.996;8.334;2023-02-28T08:47:45;101219.91;;;7.23
19061;BMP280;9663;48.996;8.334;2023-02-28T08:50:11;101224.25;;;7.27
19061;BMP280;9663;48.996;8.334;2023-02-28T08:52:38;101228.69;;;7.37
19061;BMP280;9663;48.996;8.334;2023-02-28T08:55:04;101222.91;;;7.43
19061;BMP280;9663;48.996;8.334;2023-02-28T08:57:29;101223.88;;;7.48
19061;BMP280;9663;48.996;8.334;2023-02-28T08:59:55;101223.16;;;7.53
19061;BMP280;9663;48.996;8.334;2023-02-28T09:02:21;101223.34;;;7.61
19061;BMP280;9663;48.996;8.334;2023-02-28T09:04:46;101217.56;;;7.66
19061;BMP280;9663;48.996;8.334;2023-02-28T09:07:12;101217.78;;;7.75
19061;BMP280;9663;48.996;8.334;2023-02-28T09:09:38;101212.91;;;7.84
19061;BMP280;9663;48.996;8.334;2023-02-28T09:12:32;101217.50;;;8.01
19061;BMP280;9663;48.996;8.334;2023-02-28T09:14:58;101222.91;;;8.16
19061;BMP280;9663;48.996;8.334;2023-02-28T09:17:24;101218.06;;;8.26
19061;BMP280;9663;48.996;8.334;2023-02-28T09:19:50;101217.34;;;8.33
19061;BMP280;9663;48.996;8.334;2023-02-28T09:22:15;101213.25;;;8.40
19061;BMP280;9663;48.996;8.334;2023-02-28T09:24:41;101220.13;;;8.47
19061;BMP280;9663;48.996;8.334;2023-02-28T09:27:07;101218.59;;;8.53
19061;BMP280;9663;48.996;8.334;2023-02-28T09:29:34;101212.88;;;8.63
19061;BMP280;9663;48.996;8.334;2023-02-28T09:32:00;101202.16;;;8.76
19061;BMP280;9663;48.996;8.334;2023-02-28T09:34:27;101219.25;;;8.89
19061;BMP280;9663;48.996;8.334;2023-02-28T09:36:53;101209.31;;;8.99
19061;BMP280;9663;48.996;8.334;2023-02-28T09:39:23;101211.16;;;9.07
19061;BMP280;9663;48.996;8.334;2023-02-28T09:41:54;101199.38;;;9.09
19061;BMP280;9663;48.996;8.334;2023-02-28T09:44:32;101217.03;;;9.06
19061;BMP280;9663;48.996;8.334;2023-02-28T09:47:13;101210.22;;;9.02
19061;BMP280;9663;48.996;8.334;2023-02-28T09:49:46;101197.63;;;9.07
19061;BMP280;9663;48.996;8.334;2023-02-28T09:52:19;101200.28;;;9.14
19061;BMP280;9663;48.996;8.334;2023-02-28T09:54:47;101192.84;;;9.25
19061;BMP280;9663;48.996;8.334;2023-02-28T09:57:32;101201.50;;;9.37
19061;BMP280;9663;48.996;8.334;2023-02-28T10:00:10;101210.13;;;9.49
19061;BMP280;9663;48.996;8.334;2023-02-28T10:02:51;101204.28;;;9.55
19061;BMP280;9663;48.996;8.334;2023-02-28T10:05:23;101201.81;;;9.58
19061;BMP280;9663;48.996;8.334;2023-02-28T10:08:08;101215.41;;;9.64
19061;BMP280;9663;48.996;8.334;2023-02-28T10:10:41;101211.22;;;9.68
19061;BMP280;9663;48.996;8.334;2023-02-28T10:13:32;101206.16;;;9.68
19061;BMP280;9663;48.996;8.334;2023-02-28T10:16:27;101219.66;;;9.65
19061;BMP280;9663;48.996;8.334;2023-02-28T10:19:11;101221.41;;;9.71
19061;BMP280;9663;48.996;8.334;2023-02-28T10:21:49;101216.50;;;9.81
19061;BMP280;9663;48.996;8.334;2023-02-28T10:24:43;101215.75;;;9.86
19061;BMP280;9663;48.996;8.334;2023-02-28T10:27:17;101216.56;;;9.85
19061;BMP280;9663;48.996;8.334;2023-02-28T10:29:47;101215.75;;;9.86
19061;BMP280;9663;48.996;8.334;2023-02-28T10:32:21;101223.34;;;9.86
19061;BMP280;9663;48.996;8.334;2023-02-28T10:35:00;101219.94;;;9.84
19061;BMP280;9663;48.996;8.334;2023-02-28T10:37:28;101226.63;;;9.81
19061;BMP280;9663;48.996;8.334;2023-02-28T10:39:54;101227.44;;;9.78
19061;BMP280;9663;48.996;8.334;2023-02-28T10:45:12;101223.19;;;9.75
19061;BMP280;9663;48.996;8.334;2023-02-28T10:47:57;101219.00;;;9.78
19061;BMP280;9663;48.996;8.334;2023-02-28T10:53:29;101217.56;;;9.93
19061;BMP280;9663;48.996;8.334;2023-02-28T10:59:00;101221.81;;;9.94
19061;BMP280;9663;48.996;8.334;2023-02-28T11:03:55;101219.03;;;9.81
19061;BMP280;9663;48.996;8.334;2023-02-28T11:06:32;101216.41;;;9.74
19061;BMP280;9663;48.996;8.334;2023-02-28T11:09:03;101223.13;;;9.72
19061;BMP280;9663;48.996;8.334;2023-02-28T11:11:44;101229.81;;;9.67
19061;BMP280;9663;48.996;8.334;2023-02-28T11:14:28;101224.69;;;9.64
19061;BMP280;9663;48.996;8.334;2023-02-28T11:17:02;101211.16;;;9.62
19061;BMP280;9663;48.996;8.334;2023-02-28T11:19:45;101208.66;;;9.63
19061;BMP280;9663;48.996;8.334;2023-02-28T11:22:24;101208.69;;;9.66
19061;BMP280;9663;48.996;8.334;2023-02-28T11:24:58;101199.41;;;9.67
19061;BMP280;9663;48.996;8.334;2023-02-28T11:29:58;101194.41;;;9.73
19061;BMP280;9663;48.996;8.334;2023-02-28T11:32:27;101196.19;;;9.77
19061;BMP280;9663;48.996;8.334;2023-02-28T11:37:30;101198.09;;;9.92
19061;BMP280;9663;48.996;8.334;2023-02-28T11:39:56;101197.38;;;10.01
19061;BMP280;9663;48.996;8.334;2023-02-28T11:45:42;101198.34;;;10.12
19061;BMP280;9663;48.996;8.334;2023-02-28T11:48:27;101201.00;;;10.21
19061;BMP280;9663;48.996;8.334;2023-02-28T11:51:54;101182.53;;;10.33
19061;BMP280;9663;48.996;8.334;2023-02-28T12:08:58;101180.06;;;11.28
19061;BMP280;9663;48.996;8.334;2023-02-28T12:11:53;101179.25;;;11.32
19061;BMP280;9663;48.996;8.334;2023-02-28T12:14:53;101174.19;;;11.32
19061;BMP280;9663;48.996;8.334;2023-02-28T12:17:37;101175.94;;;11.45
19061;BMP280;9663;48.996;8.334;2023-02-28T12:20:29;101176.03;;;11.52
19061;BMP280;9663;48.996;8.334;2023-02-28T12:23:19;101171.88;;;11.66
19061;BMP280;9663;48.996;8.334;2023-02-28T12:26:15;101169.41;;;11.78
19061;BMP280;9663;48.996;8.334;2023-02-28T12:28:49;101157.69;;;12.11
19061;BMP280;9663;48.996;8.334;2023-02-28T12:31:46;101164.59;;;12.56
19061;BMP280;9663;48.996;8.334;2023-02-28T12:34:20;101152.75;;;13.35
19061;BMP280;9663;48.996;8.334;2023-02-28T12:36:48;101143.00;;;14.44
19061;BMP280;9663;48.996;8.334;2023-02-28T12:39:26;101134.94;;;15.84
19061;BMP280;9663;48.996;8.334;2023-02-28T12:41:59;101125.03;;;17.34
19061;BMP280;9663;48.996;8.334;2023-02-28T12:44:35;101115.69;;;18.87
19061;BMP280;9663;48.996;8.334;2023-02-28T12:47:09;101096.97;;;20.36
19061;BMP280;9663;48.996;8.334;2023-02-28T12:49:53;101097.63;;;21.20
19061;BMP280;9663;48.996;8.334;2023-02-28T12:52:35;101090.03;;;21.86
19061;BMP280;9663;48.996;8.334;2023-02-28T12:55:40;101094.03;;;21.72
19061;BMP280;9663;48.996;8.334;2023-02-28T13:10:10;101116.00;;;17.12
19061;BMP280;9663;48.996;8.334;2023-02-28T13:12:36;101101.44;;;16.63
19061;BMP280;9663;48.996;8.334;2023-02-28T13:15:28;101103.56;;;16.34
19061;BMP280;9663;48.996;8.334;2023-02-28T13:17:59;101111.13;;;16.43
19061;BMP280;9663;48.996;8.334;2023-02-28T13:20:37;101112.03;;;16.93
19061;BMP280;9663;48.996;8.334;2023-02-28T13:26:12;101107.44;;;17.59
19061;BMP280;9663;48.996;8.334;2023-02-28T13:39:50;101118.47;;;16.06
19061;BMP280;9663;48.996;8.334;2023-02-28T13:42:48;101113.72;;;15.76
19061;BMP280;9663;48.996;8.334;2023-02-28T13:45:27;101113.19;;;15.47
19061;BMP280;9663;48.996;8.334;2023-02-28T13:47:59;101116.00;;;15.24
19061;BMP280;9663;48.996;8.334;2023-02-28T13:56:17;101122.44;;;14.65
19061;BMP280;9663;48.996;8.334;2023-02-28T13:59:15;101122.56;;;14.49
19061;BMP280;9663;48.996;8.334;2023-02-28T14:02:08;101128.56;;;14.43
19061;BMP280;9663;48.996;8.334;2023-02-28T14:07:50;101118.38;;;14.39
19061;BMP280;9663;48.996;8.334;2023-02-28T14:10:50;101108.19;;;14.31
19061;BMP280;9663;48.996;8.334;2023-02-28T14:13:45;101115.09;;;14.16
19061;BMP280;9663;48.996;8.334;2023-02-28T14:16:34;101112.56;;;14.10
19061;BMP280;9663;48.996;8.334;2023-02-28T14:19:19;101121.97;;;14.01
19061;BMP280;9663;48.996;8.334;2023-02-28T14:25:30;101120.31;;;13.80
19061;BMP280;9663;48.996;8.334;2023-02-28T14:28:39;101128.03;;;13.63
19061;BMP280;9663;48.996;8.334;2023-02-28T14:31:32;101124.69;;;13.53
19061;BMP280;9663;48.996;8.334;2023-02-28T14:36:45;101111.09;;;13.50
19061;BMP280;9663;48.996;8.334;2023-02-28T14:39:18;101124.69;;;13.52
19061;BMP280;9663;48.996;8.334;2023-02-28T14:41:46;101120.44;;;13.49
19061;BMP280;9663;48.996;8.334;2023-02-28T14:44:27;101107.72;;;13.40
19061;BMP280;9663;48.996;8.334;2023-02-28T14:46:57;101111.97;;;13.31
19061;BMP280;9663;48.996;8.334;2023-02-28T14:49:29;101117.09;;;13.28
19061;BMP280;9663;48.996;8.334;2023-02-28T14:52:22;101117.94;;;13.25
19061;BMP280;9663;48.996;8.334;2023-02-28T14:54:56;101113.66;;;13.39
19061;BMP280;9663;48.996;8.334;2023-02-28T14:57:32;101110.94;;;13.88
19061;BMP280;9663;48.996;8.334;2023-02-28T15:00:16;101099.09;;;15.05
19061;BMP280;9663;48.996;8.334;2023-02-28T15:02:46;101104.13;;;15.93
19061;BMP280;9663;48.996;8.334;2023-02-28T15:07:44;101096.81;;;17.34
19061;BMP280;9663;48.996;8.334;2023-02-28T15:10:24;101097.19;;;17.58
19061;BMP280;9663;48.996;8.334;2023-02-28T15:13:05;101093.38;;;17.77
19061;BMP280;9663;48.996;8.334;2023-02-28T15:15:51;101084.13;;;18.09
19061;BMP280;9663;48.996;8.334;2023-02-28T15:18:42;101092.31;;;18.63
19061;BMP280;9663;48.996;8.334;2023-02-28T15:21:27;101088.69;;;19.05
19061;BMP280;9663;48.996;8.334;2023-02-28T15:23:57;101082.97;;;19.27
19061;BMP280;9663;48.996;8.334;2023-02-28T15:26:30;101077.41;;;19.42
19061;BMP280;9663;48.996;8.334;2023-02-28T15:29:07;101077.13;;;19.52
19061;BMP280;9663;48.996;8.334;2023-02-28T15:31:40;101081.63;;;19.74
19061;BMP280;9663;48.996;8.334;2023-02-28T15:34:36;101073.41;;;19.92
19061;BMP280;9663;48.996;8.334;2023-02-28T15:37:26;101069.72;;;20.01
19061;BMP280;9663;48.996;8.334;2023-02-28T15:39:55;101080.56;;;20.12
19061;BMP280;9663;48.996;8.334;2023-02-28T15:42:28;101073.34;;;20.22
19061;BMP280;9663;48.996;8.334;2023-02-28T15:44:54;101082.47;;;20.59
19061;BMP280;9663;48.996;8.334;2023-02-28T15:47:29;101076.44;;;20.33
19061;BMP280;9663;48.996;8.334;2023-02-28T15:50:12;101064.69;;;19.96
19061;BMP280;9663;48.996;8.334;2023-02-28T15:52:44;101078.56;;;19.62
19061;BMP280;9663;48.996;8.334;2023-02-28T15:55:27;101077.84;;;19.27
19061;BMP280;9663;48.996;8.334;2023-02-28T15:57:56;101092.84;;;18.77
19061;BMP280;9663;48.996;8.334;2023-02-28T16:00:28;101084.28;;;18.40
19061;BMP280;9663;48.996;8.334;2023-02-28T16:02:54;101092.59;;;18.15
19061;BMP280;9663;48.996;8.334;2023-02-28T16:05:24;101090.59;;;17.89
19061;BMP280;9663;48.996;8.334;2023-02-28T16:07:57;101097.13;;;17.62
19061;BMP280;9663;48.996;8.334;2023-02-28T16:10:25;101091.84;;;17.26
19061;BMP280;9663;48.996;8.334;2023-02-28T16:12:56;101101.00;;;16.90
19061;BMP280;9663;48.996;8.334;2023-02-28T16:15:28;101110.16;;;16.52
19061;BMP280;9663;48.996;8.334;2023-02-28T16:17:55;101105.53;;;16.13
19061;BMP280;9663;48.996;8.334;2023-02-28T16:20:29;101111.13;;;15.81
19061;BMP280;9663;48.996;8.334;2023-02-28T16:22:55;101111.50;;;15.49
19061;BMP280;9663;48.996;8.334;2023-02-28T16:25:34;101113.50;;;15.15
19061;BMP280;9663;48.996;8.334;2023-02-28T16:28:02;101123.16;;;14.82
19061;BMP280;9663;48.996;8.334;2023-02-28T16:30:29;101119.97;;;14.54
19061;BMP280;9663;48.996;8.334;2023-02-28T16:32:59;101124.38;;;14.32
19061;BMP280;9663;48.996;8.334;2023-02-28T16:35:25;101123.59;;;14.16
19061;BMP280;9663;48.996;8.334;2023-02-28T16:37:51;101127.91;;;14.09
19061;BMP280;9663;48.996;8.334;2023-02-28T16:40:22;101135.56;;;13.95
19061;BMP280;9663;48.996;8.334;2023-02-28T16:42:52;101139.91;;;13.74